sensor_id;sensor_type;location;lat;lon;timestamp;temperature;humidity
21592;DHT22;10958;50.892;3.992;2023-08-08T00:00:13;15.40;99.90
21592;DHT22;10958;50.892;3.992;2023-08-08T00:02:39;15.40;99.90
21592;DHT22;10958;50.892;3.992;2023-08-08T00:05:08;15.60;99.90
21592;DHT22;10958;50.892;3.992;2023-08-08T00:07:34;15.40;99.90
21592;DHT22;10958;50.892;3.992;2023-08-08T00:10:00;15.40;99.90
21592;DHT22;10958;50.892;3.992;2023-08-08T00:12:26;15.30;99.90
21592;DHT22;10958;50.892;3.992;2023-08-08T00:14:52;15.30;99.90
21592;DHT22;10958;50.892;3.992;2023-08-08T00:17:20;15.30;99.90
21592;DHT22;10958;50.892;3.992;2023-08-08T00:19:45;15.30;99.90
21592;DHT22;10958;50.892;3.992;2023-08-08T00:22:14;15.30;99.90
21592;DHT22;10958;50.892;3.992;2023-08-08T00:24:42;15.30;99.90
21592;DHT22;10958;50.892;3.992;2023-08-08T00:27:08;15.30;99.90
21592;DHT22;10958;50.892;3.992;2023-08-08T00:29:33;15.30;99.90
21592;DHT22;10958;50.892;3.992;2023-08-08T00:31:59;15.20;99.90
21592;DHT22;10958;50.892;3.992;2023-08-08T00:34:25;15.20;99.90
21592;DHT22;10958;50.892;3.992;2023-08-08T00:36:51;15.20;99.90
21592;DHT22;10958;50.892;3.992;2023-08-08T00:39:17;15.20;99.90
21592;DHT22;10958;50.892;3.992;2023-08-08T00:41:43;15.20;99.90
21592;DHT22;10958;50.892;3.992;2023-08-08T00:44:11;15.10;99.90
21592;DHT22;10958;50.892;3.992;2023-08-08T00:46:37;15.10;99.90
21592;DHT22;10958;50.892;3.992;2023-08-08T00:49:03;15.20;99.90
21592;DHT22;10958;50.892;3.992;2023-08-08T00:51:29;15.20;99.90
21592;DHT22;10958;50.892;3.992;2023-08-08T00:53:57;15.00;99.90
21592;DHT22;10958;50.892;3.992;2023-08-08T00:56:24;15.00;99.90
21592;DHT22;10958;50.892;3.992;2023-08-08T00:58:50;14.80;99.90
21592;DHT22;10958;50.892;3.992;2023-08-08T01:01:17;14.90;99.90
21592;DHT22;10958;50.892;3.992;2023-08-08T01:03:43;15.00;99.90
21592;DHT22;10958;50.892;3.992;2023-08-08T01:06:19;14.90;99.90
21592;DHT22;10958;50.892;3.992;2023-08-08T01:09:13;15.00;99.90
21592;DHT22;10958;50.892;3.992;2023-08-08T01:11:42;15.00;99.90
21592;DHT22;10958;50.892;3.992;2023-08-08T01:14:10;15.00;99.90
21592;DHT22;10958;50.892;3.992;2023-08-08T01:16:36;15.10;99.90
21592;DHT22;10958;50.892;3.992;2023-08-08T01:19:04;15.10;99.90
21592;DHT22;10958;50.892;3.992;2023-08-08T01:21:33;15.20;99.90
21592;DHT22;10958;50.892;3.992;2023-08-08T01:24:24;15.10;99.90
21592;DHT22;10958;50.892;3.992;2023-08-08T01:26:53;15.10;99.90
21592;DHT22;10958;50.892;3.992;2023-08-08T01:29:19;15.00;99.90
21592;DHT22;10958;50.892;3.992;2023-08-08T01:31:45;15.10;99.90
21592;DHT22;10958;50.892;3.992;2023-08-08T01:34:11;15.00;99.90
21592;DHT22;10958;50.892;3.992;2023-08-08T01:36:56;14.90;99.90
21592;DHT22;10958;50.892;3.992;2023-08-08T01:39:27;14.90;99.90
21592;DHT22;10958;50.892;3.992;2023-08-08T01:41:56;14.90;99.90
21592;DHT22;10958;50.892;3.992;2023-08-08T01:44:24;14.80;99.90
21592;DHT22;10958;50.892;3.992;2023-08-08T01:46:56;14.80;99.90
21592;DHT22;10958;50.892;3.992;2023-08-08T01:49:21;14.90;99.90
21592;DHT22;10958;50.892;3.992;2023-08-08T01:51:47;14.90;99.90
21592;DHT22;10958;50.892;3.992;2023-08-08T01:54:14;15.00;99.90
21592;DHT22;10958;50.892;3.992;2023-08-08T01:56:42;14.90;99.90
21592;DHT22;10958;50.892;3.992;2023-08-08T01:59:07;14.80;99.90
21592;DHT22;10958;50.892;3.992;2023-08-08T02:01:33;14.80;99.90
21592;DHT22;10958;50.892;3.992;2023-08-08T02:03:59;14.80;99.90
21592;DHT22;10958;50.892;3.992;2023-08-08T02:06:26;14.80;99.90
21592;DHT22;10958;50.892;3.992;2023-08-08T02:08:52;14.80;99.90
21592;DHT22;10958;50.892;3.992;2023-08-08T02:11:18;14.80;99.90
21592;DHT22;10958;50.892;3.992;2023-08-08T02:13:44;14.90;99.90
21592;DHT22;10958;50.892;3.992;2023-08-08T02:16:14;14.90;99.90
21592;DHT22;10958;50.892;3.992;2023-08-08T02:18:42;14.80;99.90
21592;DHT22;10958;50.892;3.992;2023-08-08T02:21:09;14.80;99.90
21592;DHT22;10958;50.892;3.992;2023-08-08T02:23:35;14.80;99.90
21592;DHT22;10958;50.892;3.992;2023-08-08T02:26:01;14.70;99.90
21592;DHT22;10958;50.892;3.992;2023-08-08T02:28:27;14.70;99.90
21592;DHT22;10958;50.892;3.992;2023-08-08T02:30:57;14.70;99.90
21592;DHT22;10958;50.892;3.992;2023-08-08T02:33:23;14.70;99.90
21592;DHT22;10958;50.892;3.992;2023-08-08T02:35:49;14.60;99.90
21592;DHT22;10958;50.892;3.992;2023-08-08T02:38:14;14.40;99.90
21592;DHT22;10958;50.892;3.992;2023-08-08T02:40:40;14.40;99.90
21592;DHT22;10958;50.892;3.992;2023-08-08T02:43:09;14.60;99.90
21592;DHT22;10958;50.892;3.992;2023-08-08T02:45:36;14.60;99.90
21592;DHT22;10958;50.892;3.992;2023-08-08T02:48:02;14.60;99.90
21592;DHT22;10958;50.892;3.992;2023-08-08T02:50:27;14.50;99.90
21592;DHT22;10958;50.892;3.992;2023-08-08T02:52:53;14.60;99.90
21592;DHT22;10958;50.892;3.992;2023-08-08T02:55:19;14.60;99.90
21592;DHT22;10958;50.892;3.992;2023-08-08T02:57:44;14.60;99.90
21592;DHT22;10958;50.892;3.992;2023-08-08T03:00:13;14.50;99.90
21592;DHT22;10958;50.892;3.992;2023-08-08T03:02:39;14.50;99.90
21592;DHT22;10958;50.892;3.992;2023-08-08T03:05:05;14.40;99.90
21592;DHT22;10958;50.892;3.992;2023-08-08T03:07:31;14.50;99.90
21592;DHT22;10958;50.892;3.992;2023-08-08T03:09:57;14.50;99.90
21592;DHT22;10958;50.892;3.992;2023-08-08T03:12:23;14.40;99.90
21592;DHT22;10958;50.892;3.992;2023-08-08T03:14:48;14.30;99.90
21592;DHT22;10958;50.892;3.992;2023-08-08T03:17:16;14.30;99.90
21592;DHT22;10958;50.892;3.992;2023-08-08T03:19:43;14.40;99.90
21592;DHT22;10958;50.892;3.992;2023-08-08T03:22:11;14.40;99.90
21592;DHT22;10958;50.892;3.992;2023-08-08T03:24:37;14.40;99.90
21592;DHT22;10958;50.892;3.992;2023-08-08T03:27:03;14.40;99.90
21592;DHT22;10958;50.892;3.992;2023-08-08T03:29:28;14.50;99.90
21592;DHT22;10958;50.892;3.992;2023-08-08T03:31:56;14.50;99.90
21592;DHT22;10958;50.892;3.992;2023-08-08T03:34:27;14.50;99.90
21592;DHT22;10958;50.892;3.992;2023-08-08T03:36:52;14.50;99.90
21592;DHT22;10958;50.892;3.992;2023-08-08T03:39:18;14.60;99.90
21592;DHT22;10958;50.892;3.992;2023-08-08T03:41:44;14.50;99.90
21592;DHT22;10958;50.892;3.992;2023-08-08T03:44:09;14.50;99.90
21592;DHT22;10958;50.892;3.992;2023-08-08T03:46:35;14.50;99.90
21592;DHT22;10958;50.892;3.992;2023-08-08T03:49:01;14.60;99.90
21592;DHT22;10958;50.892;3.992;2023-08-08T03:51:26;14.50;99.90
21592;DHT22;10958;50.892;3.992;2023-08-08T03:53:54;14.50;99.90
21592;DHT22;10958;50.892;3.992;2023-08-08T03:56:20;14.50;99.90
21592;DHT22;10958;50.892;3.992;2023-08-08T03:58:46;14.40;99.90
21592;DHT22;10958;50.892;3.992;2023-08-08T04:01:11;14.60;99.90
21592;DHT22;10958;50.892;3.992;2023-08-08T04:03:37;14.40;99.90
21592;DHT22;10958;50.892;3.992;2023-08-08T04:06:03;14.40;99.90
21592;DHT22;10958;50.892;3.992;2023-08-08T04:08:31;14.40;99.90
21592;DHT22;10958;50.892;3.992;2023-08-08T04:10:58;14.30;99.90
21592;DHT22;10958;50.892;3.992;2023-08-08T04:13:23;14.50;99.90
21592;DHT22;10958;50.892;3.992;2023-08-08T04:15:49;14.60;99.90
21592;DHT22;10958;50.892;3.992;2023-08-08T04:18:19;14.60;99.90
21592;DHT22;10958;50.892;3.992;2023-08-08T04:20:46;14.70;99.90
21592;DHT22;10958;50.892;3.992;2023-08-08T04:23:12;14.50;99.90
21592;DHT22;10958;50.892;3.992;2023-08-08T04:25:39;14.50;99.90
21592;DHT22;10958;50.892;3.992;2023-08-08T04:28:05;14.50;99.90
21592;DHT22;10958;50.892;3.992;2023-08-08T04:30:31;14.40;99.90
21592;DHT22;10958;50.892;3.992;2023-08-08T04:32:57;14.20;99.90
21592;DHT22;10958;50.892;3.992;2023-08-08T04:35:23;14.10;99.90
21592;DHT22;10958;50.892;3.992;2023-08-08T04:37:50;14.10;99.90
21592;DHT22;10958;50.892;3.992;2023-08-08T04:40:16;13.90;99.90
21592;DHT22;10958;50.892;3.992;2023-08-08T04:42:42;13.80;99.90
21592;DHT22;10958;50.892;3.992;2023-08-08T04:45:08;13.80;99.90
21592;DHT22;10958;50.892;3.992;2023-08-08T04:47:34;13.80;99.90
21592;DHT22;10958;50.892;3.992;2023-08-08T04:49:59;13.80;99.90
21592;DHT22;10958;50.892;3.992;2023-08-08T04:52:25;13.90;99.90
21592;DHT22;10958;50.892;3.992;2023-08-08T04:54:51;13.80;99.90
21592;DHT22;10958;50.892;3.992;2023-08-08T04:57:16;13.70;99.90
21592;DHT22;10958;50.892;3.992;2023-08-08T04:59:42;13.80;99.90
21592;DHT22;10958;50.892;3.992;2023-08-08T05:02:08;13.80;99.90
21592;DHT22;10958;50.892;3.992;2023-08-08T05:04:33;13.90;99.90
21592;DHT22;10958;50.892;3.992;2023-08-08T05:07:02;14.00;99.90
21592;DHT22;10958;50.892;3.992;2023-08-08T05:09:27;13.90;99.90
21592;DHT22;10958;50.892;3.992;2023-08-08T05:11:56;13.90;99.90
21592;DHT22;10958;50.892;3.992;2023-08-08T05:14:22;14.00;99.90
21592;DHT22;10958;50.892;3.992;2023-08-08T05:16:48;14.00;99.90
21592;DHT22;10958;50.892;3.992;2023-08-08T05:19:13;13.90;99.90
21592;DHT22;10958;50.892;3.992;2023-08-08T05:21:39;13.90;99.90
21592;DHT22;10958;50.892;3.992;2023-08-08T05:24:05;14.00;99.90
21592;DHT22;10958;50.892;3.992;2023-08-08T05:26:33;14.20;99.90
21592;DHT22;10958;50.892;3.992;2023-08-08T05:28:59;14.40;99.90
21592;DHT22;10958;50.892;3.992;2023-08-08T05:31:30;14.50;99.90
21592;DHT22;10958;50.892;3.992;2023-08-08T05:33:55;14.40;99.90
21592;DHT22;10958;50.892;3.992;2023-08-08T05:36:21;14.20;99.90
21592;DHT22;10958;50.892;3.992;2023-08-08T05:38:50;14.30;99.90
21592;DHT22;10958;50.892;3.992;2023-08-08T05:41:17;14.40;99.90
21592;DHT22;10958;50.892;3.992;2023-08-08T05:43:43;14.60;99.90
21592;DHT22;10958;50.892;3.992;2023-08-08T05:46:09;14.60;99.90
21592;DHT22;10958;50.892;3.992;2023-08-08T05:48:35;14.70;99.90
21592;DHT22;10958;50.892;3.992;2023-08-08T05:51:01;14.70;99.90
21592;DHT22;10958;50.892;3.992;2023-08-08T05:53:30;14.70;99.90
21592;DHT22;10958;50.892;3.992;2023-08-08T05:55:56;14.70;99.90
21592;DHT22;10958;50.892;3.992;2023-08-08T05:58:22;14.80;99.90
21592;DHT22;10958;50.892;3.992;2023-08-08T06:00:48;15.00;99.90
21592;DHT22;10958;50.892;3.992;2023-08-08T06:03:14;15.30;99.90
21592;DHT22;10958;50.892;3.992;2023-08-08T06:05:40;15.60;99.90
21592;DHT22;10958;50.892;3.992;2023-08-08T06:08:06;15.80;99.90
21592;DHT22;10958;50.892;3.992;2023-08-08T06:10:37;16.10;99.90
21592;DHT22;10958;50.892;3.992;2023-08-08T06:13:03;16.40;99.90
21592;DHT22;10958;50.892;3.992;2023-08-08T06:15:29;16.60;99.90
21592;DHT22;10958;50.892;3.992;2023-08-08T06:17:55;16.70;99.90
21592;DHT22;10958;50.892;3.992;2023-08-08T06:20:20;17.10;99.90
21592;DHT22;10958;50.892;3.992;2023-08-08T06:22:46;17.50;99.90
21592;DHT22;10958;50.892;3.992;2023-08-08T06:25:12;17.60;99.90
21592;DHT22;10958;50.892;3.992;2023-08-08T06:27:38;17.90;99.90
21592;DHT22;10958;50.892;3.992;2023-08-08T06:30:07;18.00;99.90
21592;DHT22;10958;50.892;3.992;2023-08-08T06:32:34;18.20;99.90
21592;DHT22;10958;50.892;3.992;2023-08-08T06:34:59;18.30;99.90
21592;DHT22;10958;50.892;3.992;2023-08-08T06:37:25;18.30;99.90
21592;DHT22;10958;50.892;3.992;2023-08-08T06:39:51;18.30;99.90
21592;DHT22;10958;50.892;3.992;2023-08-08T06:42:16;18.40;99.90
21592;DHT22;10958;50.892;3.992;2023-08-08T06:44:43;18.00;99.90
21592;DHT22;10958;50.892;3.992;2023-08-08T06:47:10;17.90;99.90
21592;DHT22;10958;50.892;3.992;2023-08-08T06:49:37;18.20;99.90
21592;DHT22;10958;50.892;3.992;2023-08-08T06:52:04;18.30;99.90
21592;DHT22;10958;50.892;3.992;2023-08-08T06:54:31;18.20;99.90
21592;DHT22;10958;50.892;3.992;2023-08-08T06:56:57;18.30;99.90
21592;DHT22;10958;50.892;3.992;2023-08-08T06:59:23;18.30;99.90
21592;DHT22;10958;50.892;3.992;2023-08-08T07:01:50;18.50;99.90
21592;DHT22;10958;50.892;3.992;2023-08-08T07:04:17;18.70;99.90
21592;DHT22;10958;50.892;3.992;2023-08-08T07:06:43;18.70;99.90
21592;DHT22;10958;50.892;3.992;2023-08-08T07:09:10;18.70;99.90
21592;DHT22;10958;50.892;3.992;2023-08-08T07:11:37;18.60;99.90
21592;DHT22;10958;50.892;3.992;2023-08-08T07:14:06;18.50;99.90
21592;DHT22;10958;50.892;3.992;2023-08-08T07:16:34;18.20;99.90
21592;DHT22;10958;50.892;3.992;2023-08-08T07:19:00;18.30;99.90
21592;DHT22;10958;50.892;3.992;2023-08-08T07:21:25;18.50;99.90
21592;DHT22;10958;50.892;3.992;2023-08-08T07:23:51;18.40;99.90
21592;DHT22;10958;50.892;3.992;2023-08-08T07:26:17;18.50;99.90
21592;DHT22;10958;50.892;3.992;2023-08-08T07:28:46;18.70;99.90
21592;DHT22;10958;50.892;3.992;2023-08-08T07:31:12;19.10;99.90
21592;DHT22;10958;50.892;3.992;2023-08-08T07:33:38;18.70;99.90
21592;DHT22;10958;50.892;3.992;2023-08-08T07:36:04;18.60;99.90
21592;DHT22;10958;50.892;3.992;2023-08-08T07:38:30;18.80;99.90
21592;DHT22;10958;50.892;3.992;2023-08-08T07:40:56;18.70;99.90
21592;DHT22;10958;50.892;3.992;2023-08-08T07:43:21;18.60;99.90
21592;DHT22;10958;50.892;3.992;2023-08-08T07:45:47;18.80;99.90
21592;DHT22;10958;50.892;3.992;2023-08-08T07:48:13;18.80;99.90
21592;DHT22;10958;50.892;3.992;2023-08-08T07:50:38;18.60;99.90
21592;DHT22;10958;50.892;3.992;2023-08-08T07:53:04;18.40;99.90
21592;DHT22;10958;50.892;3.992;2023-08-08T07:55:32;18.40;99.90
21592;DHT22;10958;50.892;3.992;2023-08-08T07:57:58;18.30;99.90
21592;DHT22;10958;50.892;3.992;2023-08-08T08:00:24;18.60;99.90
21592;DHT22;10958;50.892;3.992;2023-08-08T08:02:52;18.80;99.90
21592;DHT22;10958;50.892;3.992;2023-08-08T08:05:18;18.80;99.90
21592;DHT22;10958;50.892;3.992;2023-08-08T08:07:44;18.60;99.90
21592;DHT22;10958;50.892;3.992;2023-08-08T08:10:12;18.80;99.90
21592;DHT22;10958;50.892;3.992;2023-08-08T08:12:41;18.80;99.90
21592;DHT22;10958;50.892;3.992;2023-08-08T08:15:08;18.70;99.90
21592;DHT22;10958;50.892;3.992;2023-08-08T08:17:34;18.90;99.90
21592;DHT22;10958;50.892;3.992;2023-08-08T08:20:00;19.30;99.90
21592;DHT22;10958;50.892;3.992;2023-08-08T08:22:31;19.60;99.90
21592;DHT22;10958;50.892;3.992;2023-08-08T08:25:00;19.60;99.90
21592;DHT22;10958;50.892;3.992;2023-08-08T08:27:29;19.40;99.90
21592;DHT22;10958;50.892;3.992;2023-08-08T08:29:57;19.30;99.90
21592;DHT22;10958;50.892;3.992;2023-08-08T08:32:23;19.50;99.90
21592;DHT22;10958;50.892;3.992;2023-08-08T08:34:52;19.40;99.90
21592;DHT22;10958;50.892;3.992;2023-08-08T08:37:20;19.50;99.90
21592;DHT22;10958;50.892;3.992;2023-08-08T08:39:46;19.40;99.90
21592;DHT22;10958;50.892;3.992;2023-08-08T08:42:13;19.80;99.90
21592;DHT22;10958;50.892;3.992;2023-08-08T08:44:43;19.70;99.90
21592;DHT22;10958;50.892;3.992;2023-08-08T08:47:17;20.00;99.90
21592;DHT22;10958;50.892;3.992;2023-08-08T08:49:46;20.50;99.90
21592;DHT22;10958;50.892;3.992;2023-08-08T08:52:12;20.50;99.90
21592;DHT22;10958;50.892;3.992;2023-08-08T08:54:43;20.80;99.90
21592;DHT22;10958;50.892;3.992;2023-08-08T08:57:09;20.60;99.90
21592;DHT22;10958;50.892;3.992;2023-08-08T08:59:41;20.60;99.90
21592;DHT22;10958;50.892;3.992;2023-08-08T09:02:08;20.60;99.90
21592;DHT22;10958;50.892;3.992;2023-08-08T09:04:34;20.40;99.90
21592;DHT22;10958;50.892;3.992;2023-08-08T09:07:05;20.60;99.90
21592;DHT22;10958;50.892;3.992;2023-08-08T09:09:36;21.00;99.90
21592;DHT22;10958;50.892;3.992;2023-08-08T09:12:03;21.60;99.90
21592;DHT22;10958;50.892;3.992;2023-08-08T09:14:31;21.70;99.90
21592;DHT22;10958;50.892;3.992;2023-08-08T09:16:59;22.00;99.90
21592;DHT22;10958;50.892;3.992;2023-08-08T09:19:28;22.70;99.90
21592;DHT22;10958;50.892;3.992;2023-08-08T09:21:53;23.30;99.90
21592;DHT22;10958;50.892;3.992;2023-08-08T09:24:19;23.40;99.90
21592;DHT22;10958;50.892;3.992;2023-08-08T09:26:45;24.10;99.90
21592;DHT22;10958;50.892;3.992;2023-08-08T09:29:14;23.80;99.90
21592;DHT22;10958;50.892;3.992;2023-08-08T09:31:43;22.90;99.90
21592;DHT22;10958;50.892;3.992;2023-08-08T09:34:12;22.40;99.90
21592;DHT22;10958;50.892;3.992;2023-08-08T09:36:38;21.80;99.90
21592;DHT22;10958;50.892;3.992;2023-08-08T09:39:04;22.20;99.90
21592;DHT22;10958;50.892;3.992;2023-08-08T09:41:32;22.00;99.90
21592;DHT22;10958;50.892;3.992;2023-08-08T09:43:59;22.10;99.90
21592;DHT22;10958;50.892;3.992;2023-08-08T09:46:26;22.20;99.90
21592;DHT22;10958;50.892;3.992;2023-08-08T09:48:52;21.80;99.90
21592;DHT22;10958;50.892;3.992;2023-08-08T09:51:18;21.80;99.90
21592;DHT22;10958;50.892;3.992;2023-08-08T09:53:46;21.70;99.90
21592;DHT22;10958;50.892;3.992;2023-08-08T09:56:15;21.40;99.90
21592;DHT22;10958;50.892;3.992;2023-08-08T09:58:43;21.10;99.90
21592;DHT22;10958;50.892;3.992;2023-08-08T10:03:38;21.20;99.90
21592;DHT22;10958;50.892;3.992;2023-08-08T10:06:04;20.90;99.90
21592;DHT22;10958;50.892;3.992;2023-08-08T10:08:30;21.00;99.90
21592;DHT22;10958;50.892;3.992;2023-08-08T10:10:56;20.90;99.90
21592;DHT22;10958;50.892;3.992;2023-08-08T10:13:23;20.30;99.90
21592;DHT22;10958;50.892;3.992;2023-08-08T10:15:51;19.80;99.90
21592;DHT22;10958;50.892;3.992;2023-08-08T10:18:17;19.70;99.90
21592;DHT22;10958;50.892;3.992;2023-08-08T10:20:47;19.50;99.90
21592;DHT22;10958;50.892;3.992;2023-08-08T10:23:17;19.50;99.90
21592;DHT22;10958;50.892;3.992;2023-08-08T10:25:50;19.70;99.90
21592;DHT22;10958;50.892;3.992;2023-08-08T10:28:20;19.70;99.90
21592;DHT22;10958;50.892;3.992;2023-08-08T10:30:54;20.20;99.90
21592;DHT22;10958;50.892;3.992;2023-08-08T10:33:21;20.80;99.90
21592;DHT22;10958;50.892;3.992;2023-08-08T10:36:07;21.20;99.90
21592;DHT22;10958;50.892;3.992;2023-08-08T10:38:43;21.50;99.90
21592;DHT22;10958;50.892;3.992;2023-08-08T10:41:11;21.40;99.90
21592;DHT22;10958;50.892;3.992;2023-08-08T10:43:37;21.40;99.90
21592;DHT22;10958;50.892;3.992;2023-08-08T10:46:04;21.20;99.90
21592;DHT22;10958;50.892;3.992;2023-08-08T10:48:30;21.10;99.90
21592;DHT22;10958;50.892;3.992;2023-08-08T10:51:00;21.20;99.90
21592;DHT22;10958;50.892;3.992;2023-08-08T10:53:28;21.30;99.90
21592;DHT22;10958;50.892;3.992;2023-08-08T10:56:04;21.60;99.90
21592;DHT22;10958;50.892;3.992;2023-08-08T10:58:40;21.70;99.90
21592;DHT22;10958;50.892;3.992;2023-08-08T11:01:06;21.60;99.90
21592;DHT22;10958;50.892;3.992;2023-08-08T11:03:39;21.80;99.90
21592;DHT22;10958;50.892;3.992;2023-08-08T11:06:09;22.00;99.90
21592;DHT22;10958;50.892;3.992;2023-08-08T11:08:36;22.20;99.90
21592;DHT22;10958;50.892;3.992;2023-08-08T11:11:06;22.40;99.90
21592;DHT22;10958;50.892;3.992;2023-08-08T11:13:33;22.30;99.90
21592;DHT22;10958;50.892;3.992;2023-08-08T11:16:01;22.40;99.90
21592;DHT22;10958;50.892;3.992;2023-08-08T11:18:29;22.10;99.90
21592;DHT22;10958;50.892;3.992;2023-08-08T11:20:55;21.80;99.90
21592;DHT22;10958;50.892;3.992;2023-08-08T11:23:22;21.40;99.90
21592;DHT22;10958;50.892;3.992;2023-08-08T11:25:48;21.00;99.90
21592;DHT22;10958;50.892;3.992;2023-08-08T11:28:17;21.20;99.90
21592;DHT22;10958;50.892;3.992;2023-08-08T11:30:46;21.50;99.90
21592;DHT22;10958;50.892;3.992;2023-08-08T11:33:15;21.30;99.90
21592;DHT22;10958;50.892;3.992;2023-08-08T11:35:44;21.50;99.90
21592;DHT22;10958;50.892;3.992;2023-08-08T11:38:13;21.40;99.90
21592;DHT22;10958;50.892;3.992;2023-08-08T11:40:41;21.30;99.90
21592;DHT22;10958;50.892;3.992;2023-08-08T11:43:08;21.30;99.90
21592;DHT22;10958;50.892;3.992;2023-08-08T11:45:34;21.80;99.90
21592;DHT22;10958;50.892;3.992;2023-08-08T11:48:00;21.80;99.90
21592;DHT22;10958;50.892;3.992;2023-08-08T11:50:26;21.80;99.90
21592;DHT22;10958;50.892;3.992;2023-08-08T11:52:55;21.70;99.90
21592;DHT22;10958;50.892;3.992;2023-08-08T11:55:29;21.80;99.90
21592;DHT22;10958;50.892;3.992;2023-08-08T11:57:56;22.00;99.90
21592;DHT22;10958;50.892;3.992;2023-08-08T12:00:29;21.90;99.90
21592;DHT22;10958;50.892;3.992;2023-08-08T12:02:58;21.40;99.90
21592;DHT22;10958;50.892;3.992;2023-08-08T12:05:29;21.10;99.90
21592;DHT22;10958;50.892;3.992;2023-08-08T12:07:55;20.90;99.90
21592;DHT22;10958;50.892;3.992;2023-08-08T12:10:24;21.20;99.90
21592;DHT22;10958;50.892;3.992;2023-08-08T12:12:55;21.30;99.90
21592;DHT22;10958;50.892;3.992;2023-08-08T12:15:22;21.40;99.90
21592;DHT22;10958;50.892;3.992;2023-08-08T12:17:52;21.20;99.90
21592;DHT22;10958;50.892;3.992;2023-08-08T12:20:19;21.50;99.90
21592;DHT22;10958;50.892;3.992;2023-08-08T12:22:45;21.70;99.90
21592;DHT22;10958;50.892;3.992;2023-08-08T12:25:11;22.00;99.90
21592;DHT22;10958;50.892;3.992;2023-08-08T12:27:44;22.40;99.90
21592;DHT22;10958;50.892;3.992;2023-08-08T12:30:13;22.50;99.90
21592;DHT22;10958;50.892;3.992;2023-08-08T12:32:38;22.50;99.90
21592;DHT22;10958;50.892;3.992;2023-08-08T12:35:05;22.60;99.90
21592;DHT22;10958;50.892;3.992;2023-08-08T12:37:32;22.40;99.90
21592;DHT22;10958;50.892;3.992;2023-08-08T12:39:57;22.30;99.90
21592;DHT22;10958;50.892;3.992;2023-08-08T12:42:23;22.10;99.90
21592;DHT22;10958;50.892;3.992;2023-08-08T12:44:50;22.10;99.90
21592;DHT22;10958;50.892;3.992;2023-08-08T12:47:19;22.20;99.90
21592;DHT22;10958;50.892;3.992;2023-08-08T12:49:46;22.20;99.90
21592;DHT22;10958;50.892;3.992;2023-08-08T12:52:15;22.00;99.90
21592;DHT22;10958;50.892;3.992;2023-08-08T12:54:41;22.00;99.90
21592;DHT22;10958;50.892;3.992;2023-08-08T12:57:06;22.30;99.90
21592;DHT22;10958;50.892;3.992;2023-08-08T12:59:32;22.20;99.90
21592;DHT22;10958;50.892;3.992;2023-08-08T13:01:58;22.10;99.90
21592;DHT22;10958;50.892;3.992;2023-08-08T13:04:24;22.10;99.90
21592;DHT22;10958;50.892;3.992;2023-08-08T13:06:50;22.00;99.90
21592;DHT22;10958;50.892;3.992;2023-08-08T13:09:17;22.20;99.90
21592;DHT22;10958;50.892;3.992;2023-08-08T13:11:45;22.40;99.90
21592;DHT22;10958;50.892;3.992;2023-08-08T13:14:11;22.50;99.90
21592;DHT22;10958;50.892;3.992;2023-08-08T13:16:37;22.00;99.90
21592;DHT22;10958;50.892;3.992;2023-08-08T13:19:05;22.00;99.90
21592;DHT22;10958;50.892;3.992;2023-08-08T13:21:34;22.40;99.90
21592;DHT22;10958;50.892;3.992;2023-08-08T13:24:00;22.70;99.90
21592;DHT22;10958;50.892;3.992;2023-08-08T13:26:26;22.50;99.90
21592;DHT22;10958;50.892;3.992;2023-08-08T13:28:52;22.30;99.90
21592;DHT22;10958;50.892;3.992;2023-08-08T13:31:17;22.00;99.90
21592;DHT22;10958;50.892;3.992;2023-08-08T13:33:44;21.80;99.90
21592;DHT22;10958;50.892;3.992;2023-08-08T13:36:09;22.20;99.90
21592;DHT22;10958;50.892;3.992;2023-08-08T13:38:38;22.40;99.90
21592;DHT22;10958;50.892;3.992;2023-08-08T13:41:04;22.50;99.90
21592;DHT22;10958;50.892;3.992;2023-08-08T13:43:32;22.70;99.90
21592;DHT22;10958;50.892;3.992;2023-08-08T13:45:58;22.00;99.90
21592;DHT22;10958;50.892;3.992;2023-08-08T13:48:28;21.80;99.90
21592;DHT22;10958;50.892;3.992;2023-08-08T13:50:54;21.80;99.90
21592;DHT22;10958;50.892;3.992;2023-08-08T13:53:20;21.70;99.90
21592;DHT22;10958;50.892;3.992;2023-08-08T13:55:48;21.70;99.90
21592;DHT22;10958;50.892;3.992;2023-08-08T13:58:16;21.40;99.90
21592;DHT22;10958;50.892;3.992;2023-08-08T14:00:42;21.20;99.90
21592;DHT22;10958;50.892;3.992;2023-08-08T14:03:08;21.10;99.90
21592;DHT22;10958;50.892;3.992;2023-08-08T14:05:37;21.00;99.90
21592;DHT22;10958;50.892;3.992;2023-08-08T14:08:03;21.10;99.90
21592;DHT22;10958;50.892;3.992;2023-08-08T14:10:30;20.90;99.90
21592;DHT22;10958;50.892;3.992;2023-08-08T14:12:56;20.80;99.90
21592;DHT22;10958;50.892;3.992;2023-08-08T14:15:22;20.90;99.90
21592;DHT22;10958;50.892;3.992;2023-08-08T14:17:48;20.80;99.90
21592;DHT22;10958;50.892;3.992;2023-08-08T14:20:16;21.00;99.90
21592;DHT22;10958;50.892;3.992;2023-08-08T14:22:45;20.80;99.90
21592;DHT22;10958;50.892;3.992;2023-08-08T14:25:14;20.50;99.90
21592;DHT22;10958;50.892;3.992;2023-08-08T14:27:42;20.40;99.90
21592;DHT22;10958;50.892;3.992;2023-08-08T14:30:08;20.60;99.90
21592;DHT22;10958;50.892;3.992;2023-08-08T14:32:36;20.60;99.90
21592;DHT22;10958;50.892;3.992;2023-08-08T14:35:03;20.60;99.90
21592;DHT22;10958;50.892;3.992;2023-08-08T14:37:30;20.80;99.90
21592;DHT22;10958;50.892;3.992;2023-08-08T14:39:56;21.00;99.90
21592;DHT22;10958;50.892;3.992;2023-08-08T14:42:22;21.00;99.90
21592;DHT22;10958;50.892;3.992;2023-08-08T14:44:48;21.30;99.90
21592;DHT22;10958;50.892;3.992;2023-08-08T14:47:14;21.50;99.90
21592;DHT22;10958;50.892;3.992;2023-08-08T14:49:40;21.50;99.90
21592;DHT22;10958;50.892;3.992;2023-08-08T14:52:08;21.40;99.90
21592;DHT22;10958;50.892;3.992;2023-08-08T14:54:34;21.40;99.90
21592;DHT22;10958;50.892;3.992;2023-08-08T14:57:00;21.30;99.90
21592;DHT22;10958;50.892;3.992;2023-08-08T14:59:27;21.30;99.90
21592;DHT22;10958;50.892;3.992;2023-08-08T15:01:53;21.50;99.90
21592;DHT22;10958;50.892;3.992;2023-08-08T15:04:20;21.40;99.90
21592;DHT22;10958;50.892;3.992;2023-08-08T15:06:46;21.10;99.90
21592;DHT22;10958;50.892;3.992;2023-08-08T15:09:12;20.80;99.90
21592;DHT22;10958;50.892;3.992;2023-08-08T15:11:38;20.60;99.90
21592;DHT22;10958;50.892;3.992;2023-08-08T15:14:04;20.70;99.90
21592;DHT22;10958;50.892;3.992;2023-08-08T15:16:32;20.80;99.90
21592;DHT22;10958;50.892;3.992;2023-08-08T15:18:58;20.80;99.90
21592;DHT22;10958;50.892;3.992;2023-08-08T15:21:24;20.70;99.90
21592;DHT22;10958;50.892;3.992;2023-08-08T15:23:50;20.50;99.90
21592;DHT22;10958;50.892;3.992;2023-08-08T15:26:17;20.50;99.90
21592;DHT22;10958;50.892;3.992;2023-08-08T15:28:46;20.40;99.90
21592;DHT22;10958;50.892;3.992;2023-08-08T15:31:11;20.50;99.90